Time;durP1;ratioP1;P1;durP2;ratioP2;P2;SDS_P1;SDS_P2;PMS_P1;PMS_P2;Temp;Humidity;BMP_temperature;BMP_pressure;BME280_temperature;BME280_humidity;BME280_pressure;Samples;Min_cycle;Max_cycle;Signal;HPM_P1;HPM_P2
2022/05/12 00:01:22;;;;;;;;;;;14.20;99.90;;;;;;4985504;28;20419;-62
2022/05/12 00:03:48;;;;;;;;;;;14.30;99.90;;;;;;4983970;28;20282;-62
2022/05/12 00:06:14;;;;;;;;;;;14.30;99.90;;;;;;4985443;28;19961;-62
2022/05/12 00:08:40;;;;;;;;;;;14.30;99.90;;;;;;5000238;28;19909;-62
2022/05/12 00:11:05;;;;;;;;;;;14.30;99.90;;;;;;4988213;28;20327;-62
2022/05/12 00:13:31;;;;;;;;;;;14.20;99.90;;;;;;4980748;28;20004;-62
2022/05/12 00:15:58;;;;;;;;;;;14.20;99.90;;;;;;4984802;28;19917;-62
2022/05/12 00:18:24;;;;;;;;;;;14.20;99.90;;;;;;4981342;28;19968;-62
2022/05/12 00:20:49;;;;;;;;;;;14.10;99.90;;;;;;4988507;28;19910;-62
2022/05/12 00:23:17;;;;;;;;;;;14.20;99.90;;;;;;4985560;28;19921;-62
2022/05/12 00:25:44;;;;;;;;;;;14.20;99.90;;;;;;4995705;28;19910;-62
2022/05/12 00:28:10;;;;;;;;;;;14.20;99.90;;;;;;4983688;28;20410;-63
2022/05/12 00:30:36;;;;;;;;;;;14.30;99.90;;;;;;4989017;28;20688;-62
2022/05/12 00:33:02;;;;;;;;;;;14.30;99.90;;;;;;4986246;28;19926;-62
2022/05/12 00:35:27;;;;;;;;;;;14.30;99.90;;;;;;4985462;28;19917;-62
2022/05/12 00:37:53;;;;;;;;;;;14.30;99.90;;;;;;4988890;28;19917;-62
2022/05/12 00:40:18;;;;;;;;;;;14.20;99.90;;;;;;4986281;28;20121;-62
2022/05/12 00:42:55;;;;;;;;;;;14.30;99.90;;;;;;4988860;28;19909;-62
2022/05/12 00:45:20;;;;;;;;;;;14.20;99.90;;;;;;4979394;28;19929;-62
2022/05/12 00:47:46;;;;;;;;;;;14.10;99.90;;;;;;4984913;28;19913;-62
2022/05/12 00:50:11;;;;;;;;;;;14.10;99.90;;;;;;4985671;28;20240;-62
2022/05/12 00:52:37;;;;;;;;;;;14.00;99.90;;;;;;4985194;28;20121;-62
2022/05/12 00:55:07;;;;;;;;;;;14.00;99.90;;;;;;4986147;28;20286;-62
2022/05/12 00:57:37;;;;;;;;;;;14.00;99.90;;;;;;4985368;28;19957;-62
2022/05/12 01:00:05;;;;;;;;;;;14.00;99.90;;;;;;4986102;28;19909;-62
2022/05/12 01:02:31;;;;;;;;;;;13.90;99.90;;;;;;4987744;28;19949;-62
2022/05/12 01:04:57;;;;;;;;;;;13.80;99.90;;;;;;4984306;28;19933;-62
2022/05/12 01:07:23;;;;;;;;;;;13.80;99.90;;;;;;4985774;28;20370;-62
2022/05/12 01:09:48;;;;;;;;;;;13.70;99.90;;;;;;4986190;28;19910;-62
2022/05/12 01:12:14;;;;;;;;;;;13.60;99.90;;;;;;4986449;28;19909;-62
2022/05/12 01:14:40;;;;;;;;;;;13.50;99.90;;;;;;4984295;28;19920;-62
2022/05/12 01:17:06;;;;;;;;;;;13.40;99.90;;;;;;4985758;28;19917;-62
2022/05/12 01:19:33;;;;;;;;;;;13.40;99.90;;;;;;4985194;28;19909;-62
2022/05/12 01:21:59;;;;;;;;;;;13.30;99.90;;;;;;4980393;28;19910;-62
2022/05/12 01:24:30;;;;;;;;;;;13.20;99.90;;;;;;4984955;28;19910;-62
2022/05/12 01:26:55;;;;;;;;;;;13.20;99.90;;;;;;4981831;28;19997;-62
2022/05/12 01:29:21;;;;;;;;;;;13.20;99.90;;;;;;4984148;28;20004;-62
2022/05/12 01:31:46;;;;;;;;;;;13.10;99.90;;;;;;4983371;28;19920;-62
2022/05/12 01:34:12;;;;;;;;;;;13.00;99.90;;;;;;4985057;28;20306;-62
2022/05/12 01:36:38;;;;;;;;;;;13.00;99.90;;;;;;4981818;28;20442;-62
2022/05/12 01:39:05;;;;;;;;;;;12.90;99.90;;;;;;4984116;28;20397;-62
2022/05/12 01:41:30;;;;;;;;;;;12.80;99.90;;;;;;4987617;28;19913;-62
2022/05/12 01:43:56;;;;;;;;;;;12.70;99.90;;;;;;4987454;28;19913;-62
2022/05/12 01:46:21;;;;;;;;;;;12.70;99.90;;;;;;4984397;28;20004;-62
2022/05/12 01:48:47;;;;;;;;;;;12.60;99.90;;;;;;4985250;28;20335;-62
2022/05/12 01:51:12;;;;;;;;;;;12.50;99.90;;;;;;4986613;28;19945;-62
2022/05/12 01:53:38;;;;;;;;;;;12.40;99.90;;;;;;4985403;28;19941;-62
2022/05/12 01:56:06;;;;;;;;;;;12.40;99.90;;;;;;4985443;28;19916;-62
2022/05/12 01:58:32;;;;;;;;;;;12.30;99.90;;;;;;4985242;28;20725;-62
2022/05/12 02:00:58;;;;;;;;;;;12.30;99.90;;;;;;4984043;28;20319;-63
2022/05/12 02:03:23;;;;;;;;;;;12.20;99.90;;;;;;4984898;28;19925;-62
2022/05/12 02:05:49;;;;;;;;;;;12.10;99.90;;;;;;5016916;28;20457;-62
2022/05/12 02:08:15;;;;;;;;;;;12.10;99.90;;;;;;4985694;28;19909;-62
2022/05/12 02:10:42;;;;;;;;;;;12.00;99.90;;;;;;4984969;28;19909;-62
2022/05/12 02:13:09;;;;;;;;;;;12.00;99.90;;;;;;4983490;28;19916;-62
2022/05/12 02:15:35;;;;;;;;;;;11.90;99.90;;;;;;4989222;28;19948;-62
2022/05/12 02:18:01;;;;;;;;;;;11.90;99.90;;;;;;4988097;28;20228;-62
2022/05/12 02:20:27;;;;;;;;;;;11.80;99.90;;;;;;4989957;28;19913;-62
2022/05/12 02:22:52;;;;;;;;;;;11.80;99.90;;;;;;4991136;28;20156;-62
2022/05/12 02:25:18;;;;;;;;;;;11.70;99.90;;;;;;4990399;28;19937;-62
2022/05/12 02:27:46;;;;;;;;;;;11.70;99.90;;;;;;4988853;28;19997;-62
2022/05/12 02:30:16;;;;;;;;;;;11.60;99.90;;;;;;4986584;28;20398;-62
2022/05/12 02:32:41;;;;;;;;;;;11.60;99.90;;;;;;4989399;28;20008;-62
2022/05/12 02:35:07;;;;;;;;;;;11.60;99.90;;;;;;4988818;28;20325;-62
2022/05/12 02:37:33;;;;;;;;;;;11.60;99.90;;;;;;4988242;28;19918;-62
2022/05/12 02:39:58;;;;;;;;;;;11.60;99.90;;;;;;4986735;28;19909;-62
2022/05/12 02:42:24;;;;;;;;;;;11.60;99.90;;;;;;4988808;28;19960;-62
2022/05/12 02:44:49;;;;;;;;;;;11.50;99.90;;;;;;4988822;28;19917;-62
2022/05/12 02:47:15;;;;;;;;;;;11.40;99.90;;;;;;4988611;28;20156;-62
2022/05/12 02:49:41;;;;;;;;;;;11.30;99.90;;;;;;4985126;28;19917;-62
2022/05/12 02:52:09;;;;;;;;;;;11.30;99.90;;;;;;4988546;28;19917;-62
2022/05/12 02:54:35;;;;;;;;;;;11.20;99.90;;;;;;4987822;28;20557;-62
2022/05/12 02:57:01;;;;;;;;;;;11.30;99.90;;;;;;4988619;28;20039;-62
2022/05/12 02:59:26;;;;;;;;;;;11.20;99.90;;;;;;4981853;28;20631;-62
2022/05/12 03:01:52;;;;;;;;;;;11.10;99.90;;;;;;4986030;28;20165;-62
2022/05/12 03:04:17;;;;;;;;;;;11.10;99.90;;;;;;4990511;28;20380;-62
2022/05/12 03:06:43;;;;;;;;;;;11.00;99.90;;;;;;4985522;28;19914;-62
2022/05/12 03:09:09;;;;;;;;;;;10.90;99.90;;;;;;4989509;28;19992;-62
2022/05/12 03:11:34;;;;;;;;;;;10.90;99.90;;;;;;4988856;28;19909;-62
2022/05/12 03:14:00;;;;;;;;;;;10.90;99.90;;;;;;4989038;28;19914;-62
2022/05/12 03:16:26;;;;;;;;;;;10.80;99.90;;;;;;4996706;28;19917;-62
2022/05/12 03:18:53;;;;;;;;;;;10.60;99.90;;;;;;4988165;28;20200;-62
2022/05/12 03:21:19;;;;;;;;;;;10.60;99.90;;;;;;4988169;28;19910;-62
2022/05/12 03:23:44;;;;;;;;;;;10.50;99.90;;;;;;4986826;28;19913;-62
2022/05/12 03:26:10;;;;;;;;;;;10.40;99.90;;;;;;4988230;28;19914;-62
2022/05/12 03:28:37;;;;;;;;;;;10.60;99.90;;;;;;4980425;28;19941;-62
2022/05/12 03:31:02;;;;;;;;;;;10.60;99.90;;;;;;4986212;28;20354;-62
2022/05/12 03:33:28;;;;;;;;;;;10.60;99.90;;;;;;4987333;28;20005;-62
2022/05/12 03:35:53;;;;;;;;;;;10.50;99.90;;;;;;4986403;28;19941;-62
2022/05/12 03:38:19;;;;;;;;;;;10.50;99.90;;;;;;4988096;28;19914;-62
2022/05/12 03:40:45;;;;;;;;;;;10.30;99.90;;;;;;4997115;28;19909;-62
2022/05/12 03:44:46;;;;;;;;;;;10.30;99.90;;;;;;4990608;28;20437;-62
2022/05/12 03:45:57;;;;;;;;;;;10.20;99.90;;;;;;4988943;28;19909;-61
2022/05/12 03:48:23;;;;;;;;;;;10.20;99.90;;;;;;4986863;28;20448;-62
2022/05/12 03:50:49;;;;;;;;;;;10.10;99.90;;;;;;4984879;28;21180;-62
2022/05/12 03:53:14;;;;;;;;;;;10.00;99.90;;;;;;4987167;28;20411;-62
2022/05/12 03:55:40;;;;;;;;;;;10.00;99.90;;;;;;4984892;28;20181;-61
2022/05/12 03:58:05;;;;;;;;;;;10.00;99.90;;;;;;4984795;28;19937;-62
2022/05/12 04:00:31;;;;;;;;;;;10.20;99.90;;;;;;4984914;28;20060;-61
2022/05/12 04:02:57;;;;;;;;;;;10.40;99.90;;;;;;4987265;28;19913;-62
2022/05/12 04:05:23;;;;;;;;;;;10.30;99.90;;;;;;4987073;28;20142;-62
2022/05/12 04:07:49;;;;;;;;;;;10.10;99.90;;;;;;4986769;28;19933;-62
2022/05/12 04:10:15;;;;;;;;;;;10.10;99.90;;;;;;4986974;28;19916;-62
2022/05/12 04:12:40;;;;;;;;;;;10.00;99.90;;;;;;4985724;28;20243;-62
2022/05/12 04:15:06;;;;;;;;;;;10.20;99.90;;;;;;4986004;28;19917;-61
2022/05/12 04:17:32;;;;;;;;;;;10.40;99.90;;;;;;4986858;28;19914;-62
2022/05/12 04:20:00;;;;;;;;;;;10.40;99.90;;;;;;4998799;28;19914;-62
2022/05/12 04:22:26;;;;;;;;;;;10.40;99.90;;;;;;4985300;28;19945;-61
2022/05/12 04:24:51;;;;;;;;;;;10.50;99.90;;;;;;4986101;28;19949;-62
2022/05/12 04:27:17;;;;;;;;;;;10.40;99.90;;;;;;4984814;28;20325;-62
2022/05/12 04:29:43;;;;;;;;;;;10.30;99.90;;;;;;4983179;28;19914;-62
2022/05/12 04:32:08;;;;;;;;;;;10.20;99.90;;;;;;4984276;28;20334;-62
2022/05/12 04:37:23;;;;;;;;;;;10.40;99.90;;;;;;4985157;28;20093;-62
2022/05/12 04:39:49;;;;;;;;;;;10.60;99.90;;;;;;4984346;28;20147;-62
2022/05/12 04:42:14;;;;;;;;;;;10.70;99.90;;;;;;4985385;28;19983;-61
2022/05/12 04:44:40;;;;;;;;;;;10.70;99.90;;;;;;4982754;28;19945;-62
2022/05/12 04:47:05;;;;;;;;;;;10.70;99.90;;;;;;4984439;28;20023;-61
2022/05/12 04:49:31;;;;;;;;;;;10.70;99.90;;;;;;4984593;28;20366;-62
2022/05/12 04:51:57;;;;;;;;;;;10.80;99.90;;;;;;4983266;28;20349;-62
2022/05/12 04:54:23;;;;;;;;;;;10.90;99.90;;;;;;4984869;28;19960;-62
2022/05/12 04:56:48;;;;;;;;;;;10.90;99.90;;;;;;4984304;28;19920;-62
2022/05/12 04:59:13;;;;;;;;;;;10.90;99.90;;;;;;4983235;28;19914;-61
2022/05/12 05:01:39;;;;;;;;;;;10.90;99.90;;;;;;5014178;28;19921;-61
2022/05/12 05:04:04;;;;;;;;;;;11.00;99.90;;;;;;4982112;28;19910;-61
2022/05/12 05:06:31;;;;;;;;;;;11.00;99.90;;;;;;4984337;28;19910;-61
2022/05/12 05:08:56;;;;;;;;;;;11.10;99.90;;;;;;4983025;28;19960;-62
2022/05/12 05:11:22;;;;;;;;;;;11.10;99.90;;;;;;4983085;28;20337;-62
2022/05/12 05:13:47;;;;;;;;;;;11.10;99.90;;;;;;4983589;28;19906;-61
2022/05/12 05:16:13;;;;;;;;;;;11.10;99.90;;;;;;4981789;28;20397;-62
2022/05/12 05:18:38;;;;;;;;;;;11.20;99.90;;;;;;4978201;28;19914;-61
2022/05/12 05:21:04;;;;;;;;;;;11.30;99.90;;;;;;4975806;28;19918;-61
2022/05/12 05:23:30;;;;;;;;;;;11.40;99.90;;;;;;4984000;28;19921;-61
2022/05/12 05:25:56;;;;;;;;;;;11.40;99.90;;;;;;4983313;28;20121;-62
2022/05/12 05:28:22;;;;;;;;;;;11.40;99.90;;;;;;5015361;28;20210;-62
2022/05/12 05:30:47;;;;;;;;;;;11.40;99.90;;;;;;4983084;28;20344;-61
2022/05/12 05:33:13;;;;;;;;;;;11.30;99.90;;;;;;4983511;28;19933;-61
2022/05/12 05:35:38;;;;;;;;;;;11.40;99.90;;;;;;4982022;28;20362;-61
2022/05/12 05:38:04;;;;;;;;;;;11.40;99.90;;;;;;4982367;28;19914;-62
2022/05/12 05:40:30;;;;;;;;;;;11.40;99.90;;;;;;4980345;28;19933;-61
2022/05/12 05:42:56;;;;;;;;;;;11.50;99.90;;;;;;5011920;28;20384;-61
2022/05/12 05:45:22;;;;;;;;;;;11.60;99.90;;;;;;4987585;28;20387;-61
2022/05/12 05:47:58;;;;;;;;;;;11.60;99.90;;;;;;4986640;28;19969;-61
2022/05/12 05:50:27;;;;;;;;;;;11.70;99.90;;;;;;4985587;28;19924;-62
2022/05/12 05:55:38;;;;;;;;;;;11.80;99.90;;;;;;4987193;28;19920;-61
2022/05/12 05:58:04;;;;;;;;;;;11.90;99.90;;;;;;4988234;28;20293;-62
2022/05/12 06:00:31;;;;;;;;;;;12.00;99.90;;;;;;4983972;28;19956;-61
2022/05/12 06:02:57;;;;;;;;;;;12.10;99.90;;;;;;4988806;28;19920;-61
2022/05/12 06:05:23;;;;;;;;;;;12.20;99.90;;;;;;4986130;28;19910;-62
2022/05/12 06:07:49;;;;;;;;;;;12.30;99.90;;;;;;5017233;28;19910;-61
2022/05/12 06:10:14;;;;;;;;;;;12.50;99.90;;;;;;4988246;28;19973;-61
2022/05/12 06:12:40;;;;;;;;;;;12.60;99.90;;;;;;4984552;28;19910;-62
2022/05/12 06:15:06;;;;;;;;;;;12.50;99.90;;;;;;4987418;28;20385;-62
2022/05/12 06:17:33;;;;;;;;;;;12.40;99.90;;;;;;4985318;28;19914;-62
2022/05/12 06:19:59;;;;;;;;;;;12.50;99.90;;;;;;4986723;28;19988;-61
2022/05/12 06:22:25;;;;;;;;;;;12.60;99.90;;;;;;5019405;28;20380;-61
2022/05/12 06:24:50;;;;;;;;;;;12.70;99.90;;;;;;4994656;28;19910;-62
2022/05/12 06:27:19;;;;;;;;;;;12.80;99.90;;;;;;4990873;28;19912;-62
2022/05/12 06:29:45;;;;;;;;;;;12.90;99.90;;;;;;4985742;28;19921;-62
2022/05/12 06:32:10;;;;;;;;;;;12.90;99.90;;;;;;4987724;28;19913;-62
2022/05/12 06:34:37;;;;;;;;;;;12.80;99.90;;;;;;4989160;28;20020;-62
2022/05/12 06:37:04;;;;;;;;;;;12.80;99.90;;;;;;4988227;28;20278;-62
2022/05/12 06:39:30;;;;;;;;;;;12.90;99.90;;;;;;4987954;28;19916;-61
2022/05/12 06:41:55;;;;;;;;;;;13.00;99.90;;;;;;4987129;28;19909;-62
2022/05/12 06:44:21;;;;;;;;;;;13.00;99.90;;;;;;5018626;28;19992;-62
2022/05/12 06:46:46;;;;;;;;;;;13.10;99.90;;;;;;4986307;28;20369;-62
2022/05/12 06:49:12;;;;;;;;;;;13.30;99.90;;;;;;4987994;28;19909;-62
2022/05/12 06:51:38;;;;;;;;;;;13.40;99.90;;;;;;4986938;28;20051;-62
2022/05/12 06:54:03;;;;;;;;;;;13.40;99.90;;;;;;4990316;28;20429;-62
2022/05/12 06:56:29;;;;;;;;;;;13.40;99.90;;;;;;4985072;28;20289;-62
2022/05/12 06:58:54;;;;;;;;;;;13.50;99.90;;;;;;4985991;28;19910;-62
2022/05/12 07:01:20;;;;;;;;;;;13.60;99.90;;;;;;4985144;28;19913;-62
2022/05/12 07:03:45;;;;;;;;;;;13.70;99.90;;;;;;4987254;28;19967;-62
2022/05/12 07:06:11;;;;;;;;;;;13.70;99.90;;;;;;4990243;28;20233;-62
2022/05/12 07:08:38;;;;;;;;;;;13.80;99.90;;;;;;4990006;28;19906;-61
2022/05/12 07:11:04;;;;;;;;;;;13.80;99.90;;;;;;4986200;28;19914;-62
2022/05/12 07:13:29;;;;;;;;;;;14.00;99.90;;;;;;4987619;28;19909;-62
2022/05/12 07:15:55;;;;;;;;;;;14.30;99.90;;;;;;4987350;28;19952;-62
2022/05/12 07:18:20;;;;;;;;;;;14.40;99.90;;;;;;4986539;28;19914;-62
2022/05/12 07:28:58;;;;;;;;;;;14.40;99.90;;;;;;4985643;28;20407;-62
2022/05/12 07:31:24;;;;;;;;;;;14.80;99.90;;;;;;4984783;28;19933;-62
2022/05/12 07:33:50;;;;;;;;;;;15.10;99.90;;;;;;4986459;28;19933;-62
2022/05/12 07:36:15;;;;;;;;;;;15.20;99.90;;;;;;4982100;28;19941;-62
2022/05/12 07:38:42;;;;;;;;;;;15.00;99.90;;;;;;4986091;28;20000;-62
2022/05/12 07:41:09;;;;;;;;;;;14.80;99.90;;;;;;4987074;28;19972;-62
2022/05/12 07:43:35;;;;;;;;;;;14.70;99.90;;;;;;4990339;28;19914;-62
2022/05/12 07:46:01;;;;;;;;;;;14.80;99.90;;;;;;4988568;28;19910;-62
2022/05/12 07:48:26;;;;;;;;;;;14.70;99.90;;;;;;5021475;28;19979;-62
2022/05/12 07:50:52;;;;;;;;;;;14.80;99.90;;;;;;4996804;28;20004;-61
2022/05/12 07:53:18;;;;;;;;;;;15.00;99.90;;;;;;4986833;28;19909;-62
2022/05/12 07:55:44;;;;;;;;;;;15.00;99.90;;;;;;4983503;28;19949;-61
2022/05/12 07:58:10;;;;;;;;;;;14.70;99.90;;;;;;4986863;28;19914;-61
2022/05/12 08:00:36;;;;;;;;;;;14.70;99.90;;;;;;4979995;28;19937;-62
2022/05/12 08:03:01;;;;;;;;;;;14.70;99.90;;;;;;4986388;28;20243;-61
2022/05/12 08:05:26;;;;;;;;;;;15.10;99.90;;;;;;4986721;28;19909;-62
2022/05/12 08:07:52;;;;;;;;;;;15.50;99.90;;;;;;4986558;28;19914;-62
2022/05/12 08:10:19;;;;;;;;;;;15.70;99.90;;;;;;4985563;28;19954;-62
2022/05/12 08:12:45;;;;;;;;;;;16.60;99.90;;;;;;4985760;28;20385;-62
2022/05/12 08:15:11;;;;;;;;;;;17.20;99.90;;;;;;4983164;28;19909;-62
2022/05/12 08:17:37;;;;;;;;;;;17.50;99.90;;;;;;4982274;28;19963;-62
2022/05/12 08:20:06;;;;;;;;;;;18.10;99.90;;;;;;4986664;28;19933;-62
2022/05/12 08:22:32;;;;;;;;;;;18.40;99.90;;;;;;4987127;28;19910;-62
2022/05/12 08:24:57;;;;;;;;;;;18.80;99.90;;;;;;4986402;28;19949;-61
2022/05/12 08:27:24;;;;;;;;;;;18.60;99.90;;;;;;4989313;28;20401;-61
2022/05/12 08:29:50;;;;;;;;;;;18.70;99.90;;;;;;4986343;28;19944;-62
2022/05/12 08:32:25;;;;;;;;;;;19.00;99.90;;;;;;5074003;27;20533;-62
2022/05/12 08:34:50;;;;;;;;;;;18.80;99.90;;;;;;5067643;28;19916;-62
2022/05/12 08:37:17;;;;;;;;;;;19.40;99.90;;;;;;5070004;28;20015;-62
2022/05/12 08:39:44;;;;;;;;;;;19.60;99.90;;;;;;5069849;28;19958;-61
2022/05/12 08:42:14;;;;;;;;;;;19.10;99.90;;;;;;5074552;28;20007;-61
2022/05/12 08:44:39;;;;;;;;;;;18.30;99.90;;;;;;5072548;28;19918;-61
2022/05/12 08:47:09;;;;;;;;;;;19.10;99.90;;;;;;5069546;28;20002;-61
2022/05/12 08:49:47;;;;;;;;;;;19.40;99.90;;;;;;5070657;28;19913;-61
2022/05/12 08:52:31;;;;;;;;;;;20.20;99.90;;;;;;5069321;28;19920;-61
2022/05/12 08:55:01;;;;;;;;;;;20.40;99.60;;;;;;5070115;28;19923;-61
2022/05/12 08:57:54;;;;;;;;;;;19.20;99.00;;;;;;5069218;28;19969;-61
2022/05/12 09:00:19;;;;;;;;;;;17.90;99.90;;;;;;5066476;28;19978;-62
2022/05/12 09:02:51;;;;;;;;;;;17.90;99.90;;;;;;5067805;28;19959;-61
2022/05/12 09:05:18;;;;;;;;;;;18.40;99.90;;;;;;5068941;28;20403;-61
2022/05/12 09:07:49;;;;;;;;;;;18.20;99.90;;;;;;5071246;28;19913;-61
2022/05/12 09:10:33;;;;;;;;;;;17.70;99.90;;;;;;5071714;28;19908;-61
2022/05/12 09:12:59;;;;;;;;;;;18.00;99.90;;;;;;5061146;28;19913;-61
2022/05/12 09:15:28;;;;;;;;;;;19.40;99.90;;;;;;5101353;28;19912;-61
2022/05/12 09:17:56;;;;;;;;;;;19.80;97.60;;;;;;5067767;28;19920;-61
2022/05/12 09:20:22;;;;;;;;;;;19.90;97.60;;;;;;5071233;28;19919;-61
2022/05/12 09:22:47;;;;;;;;;;;20.50;97.30;;;;;;5064795;28;20291;-61
2022/05/12 09:25:28;;;;;;;;;;;20.90;95.80;;;;;;5065541;28;19912;-61
2022/05/12 09:27:53;;;;;;;;;;;21.40;95.00;;;;;;5066562;28;19913;-61
2022/05/12 09:30:29;;;;;;;;;;;22.10;93.90;;;;;;5063146;28;19939;-61
2022/05/12 09:32:58;;;;;;;;;;;22.30;93.20;;;;;;5066332;28;19920;-61
2022/05/12 09:35:24;;;;;;;;;;;22.00;91.90;;;;;;5068909;28;19912;-61
2022/05/12 09:37:51;;;;;;;;;;;20.90;93.10;;;;;;5067968;28;19966;-61
2022/05/12 09:40:23;;;;;;;;;;;20.90;91.90;;;;;;5070993;28;20354;-61
2022/05/12 09:42:56;;;;;;;;;;;21.20;91.20;;;;;;5063109;28;19912;-61
2022/05/12 09:45:22;;;;;;;;;;;21.20;91.50;;;;;;5057974;28;19913;-61
2022/05/12 09:47:47;;;;;;;;;;;20.90;91.70;;;;;;5055804;28;20756;-61
2022/05/12 09:50:23;;;;;;;;;;;20.50;93.20;;;;;;5061579;28;19913;-61
2022/05/12 09:52:49;;;;;;;;;;;21.80;93.00;;;;;;5057359;28;20288;-61
2022/05/12 09:55:17;;;;;;;;;;;21.70;90.20;;;;;;5064930;28;19917;-62
2022/05/12 09:57:51;;;;;;;;;;;22.20;90.80;;;;;;5055598;28;19955;-62
2022/05/12 10:00:25;;;;;;;;;;;21.70;90.50;;;;;;5054928;28;19920;-61
2022/05/12 10:08:28;;;;;;;;;;;23.80;86.00;;;;;;5055170;28;20005;-61
2022/05/12 10:10:57;;;;;;;;;;;24.10;80.80;;;;;;5058503;28;20273;-62
2022/05/12 10:13:25;;;;;;;;;;;24.00;81.50;;;;;;5051797;28;20313;-62
2022/05/12 10:15:53;;;;;;;;;;;23.80;80.60;;;;;;5055399;28;19919;-61
2022/05/12 10:18:37;;;;;;;;;;;23.00;82.80;;;;;;5060256;28;19912;-61
2022/05/12 10:21:13;;;;;;;;;;;22.90;82.20;;;;;;5057064;28;19913;-62
2022/05/12 10:23:52;;;;;;;;;;;23.10;76.90;;;;;;5051882;28;19912;-62
2022/05/12 10:26:31;;;;;;;;;;;23.60;77.60;;;;;;5051564;28;19952;-62
2022/05/12 10:29:02;;;;;;;;;;;23.10;79.40;;;;;;5053136;28;19948;-62
2022/05/12 10:31:45;;;;;;;;;;;23.80;78.80;;;;;;5058647;28;19932;-62
2022/05/12 10:34:30;;;;;;;;;;;23.70;77.10;;;;;;5055981;28;19948;-62
2022/05/12 10:37:01;;;;;;;;;;;23.80;77.90;;;;;;5051897;28;20399;-62
2022/05/12 10:39:33;;;;;;;;;;;23.80;77.50;;;;;;5055278;28;19912;-62
2022/05/12 10:42:08;;;;;;;;;;;23.00;76.70;;;;;;5057129;28;20011;-62
2022/05/12 10:44:33;;;;;;;;;;;23.40;78.70;;;;;;5057744;28;20361;-62
2022/05/12 10:47:02;;;;;;;;;;;23.20;77.30;;;;;;5058608;28;19919;-62
2022/05/12 10:49:51;;;;;;;;;;;22.60;77.90;;;;;;5057247;28;19912;-62
2022/05/12 10:52:27;;;;;;;;;;;22.40;79.90;;;;;;5059272;28;19978;-62
2022/05/12 10:55:01;;;;;;;;;;;21.70;81.00;;;;;;5056095;28;19920;-62
2022/05/12 10:57:27;;;;;;;;;;;22.50;82.20;;;;;;5052926;28;19917;-62
2022/05/12 10:59:52;;;;;;;;;;;24.00;79.00;;;;;;5049493;28;19913;-62
2022/05/12 11:02:37;;;;;;;;;;;24.70;77.30;;;;;;5050236;28;19935;-62
2022/05/12 11:05:21;;;;;;;;;;;24.10;75.90;;;;;;5053230;28;19919;-62
2022/05/12 11:08:09;;;;;;;;;;;25.00;74.50;;;;;;5054614;28;19916;-62
2022/05/12 11:10:39;;;;;;;;;;;24.40;76.00;;;;;;5060385;28;19924;-62
2022/05/12 11:13:10;;;;;;;;;;;23.30;75.10;;;;;;5057291;28;20262;-62
2022/05/12 11:15:45;;;;;;;;;;;22.00;79.70;;;;;;5049809;28;20015;-62
2022/05/12 11:18:15;;;;;;;;;;;21.50;82.20;;;;;;5057220;28;19915;-62
2022/05/12 11:20:48;;;;;;;;;;;21.30;84.70;;;;;;5055535;28;19912;-62
2022/05/12 11:23:22;;;;;;;;;;;22.10;82.30;;;;;;5052213;28;19961;-62
2022/05/12 11:25:48;;;;;;;;;;;22.10;81.20;;;;;;5053772;28;19957;-62
2022/05/12 11:31:13;;;;;;;;;;;22.80;79.70;;;;;;5053435;28;19938;-62
2022/05/12 11:33:40;;;;;;;;;;;23.70;75.20;;;;;;5055962;28;20011;-62
2022/05/12 11:36:08;;;;;;;;;;;24.70;75.70;;;;;;5051136;28;19917;-62
2022/05/12 11:38:40;;;;;;;;;;;24.60;71.80;;;;;;5051660;28;19912;-62
2022/05/12 11:41:06;;;;;;;;;;;23.40;75.00;;;;;;5059424;28;19950;-62
2022/05/12 11:46:41;;;;;;;;;;;22.00;76.40;;;;;;5048944;28;19959;-62
2022/05/12 11:49:13;;;;;;;;;;;21.70;76.50;;;;;;5052791;28;20253;-62
2022/05/12 11:52:05;;;;;;;;;;;21.20;78.90;;;;;;5057020;28;19935;-63
2022/05/12 11:54:32;;;;;;;;;;;20.80;81.10;;;;;;5055637;28;19916;-62
2022/05/12 11:56:59;;;;;;;;;;;21.00;81.20;;;;;;5052167;28;19913;-62
2022/05/12 11:59:33;;;;;;;;;;;22.50;79.30;;;;;;5052303;28;19913;-62
2022/05/12 12:02:00;;;;;;;;;;;23.60;76.10;;;;;;5050620;28;20003;-62
2022/05/12 12:04:44;;;;;;;;;;;23.50;74.40;;;;;;5052206;28;20015;-62
2022/05/12 12:07:28;;;;;;;;;;;23.00;74.60;;;;;;5051623;28;19912;-63
2022/05/12 12:09:56;;;;;;;;;;;23.40;74.70;;;;;;5052871;28;19913;-62
2022/05/12 12:12:40;;;;;;;;;;;24.80;74.00;;;;;;5051665;28;19916;-62
2022/05/12 12:15:06;;;;;;;;;;;25.20;73.60;;;;;;5055831;28;19923;-63
2022/05/12 12:17:36;;;;;;;;;;;24.80;70.50;;;;;;5055390;28;20455;-62
2022/05/12 12:20:09;;;;;;;;;;;25.00;69.70;;;;;;5052899;28;20451;-62
2022/05/12 12:22:37;;;;;;;;;;;25.80;71.70;;;;;;5053003;28;20392;-63
2022/05/12 12:25:09;;;;;;;;;;;26.30;71.70;;;;;;5053907;28;20007;-62
2022/05/12 12:27:41;;;;;;;;;;;26.20;70.00;;;;;;5052169;28;19913;-62
2022/05/12 12:30:25;;;;;;;;;;;26.60;68.90;;;;;;5057568;28;20599;-62
2022/05/12 12:33:08;;;;;;;;;;;26.60;68.00;;;;;;5056170;28;20384;-62
2022/05/12 12:35:49;;;;;;;;;;;26.50;68.50;;;;;;5048929;28;20015;-63
2022/05/12 12:38:33;;;;;;;;;;;26.00;67.50;;;;;;5052300;28;19913;-63
2022/05/12 12:40:59;;;;;;;;;;;24.80;67.90;;;;;;5058929;28;20384;-62
2022/05/12 12:43:29;;;;;;;;;;;24.40;70.40;;;;;;5052043;28;19982;-62
2022/05/12 12:45:54;;;;;;;;;;;24.90;68.20;;;;;;5053781;28;19919;-62
2022/05/12 12:48:32;;;;;;;;;;;25.30;69.80;;;;;;5052286;28;19912;-63
2022/05/12 12:50:57;;;;;;;;;;;24.40;68.00;;;;;;5050342;28;19916;-62
2022/05/12 12:56:30;;;;;;;;;;;24.70;68.70;;;;;;5048981;28;20384;-62
2022/05/12 12:56:30;;;;;;;;;;;25.70;68.60;;;;;;5059692;28;19923;-62
2022/05/12 12:58:57;;;;;;;;;;;25.00;67.00;;;;;;5055641;28;19936;-62
2022/05/12 13:01:22;;;;;;;;;;;26.10;65.50;;;;;;5055848;28;20035;-62
2022/05/12 13:03:54;;;;;;;;;;;26.60;64.40;;;;;;5056092;28;20002;-62
2022/05/12 13:06:30;;;;;;;;;;;27.20;63.30;;;;;;5053985;28;20449;-64
2022/05/12 13:08:57;;;;;;;;;;;26.10;62.10;;;;;;5058613;28;19959;-62
2022/05/12 13:11:23;;;;;;;;;;;25.70;65.10;;;;;;5052415;28;19921;-63
2022/05/12 13:13:49;;;;;;;;;;;24.60;66.30;;;;;;5056904;28;20126;-62
2022/05/12 13:16:15;;;;;;;;;;;23.70;67.10;;;;;;5049832;28;19920;-62
2022/05/12 13:18:46;;;;;;;;;;;23.10;66.90;;;;;;5057658;28;20360;-62
2022/05/12 13:21:17;;;;;;;;;;;23.10;68.80;;;;;;5060011;28;20360;-62
2022/05/12 13:23:44;;;;;;;;;;;24.00;68.20;;;;;;5057039;28;19917;-62
2022/05/12 13:26:10;;;;;;;;;;;24.90;65.90;;;;;;5062953;28;19916;-62
2022/05/12 13:28:37;;;;;;;;;;;24.70;66.20;;;;;;5054769;28;19928;-62
2022/05/12 13:31:23;;;;;;;;;;;24.70;65.40;;;;;;5056234;28;19934;-62
2022/05/12 13:34:04;;;;;;;;;;;25.80;66.50;;;;;;5058561;28;20027;-62
2022/05/12 13:36:32;;;;;;;;;;;26.60;64.90;;;;;;5054289;28;19939;-62
2022/05/12 13:38:57;;;;;;;;;;;27.00;63.50;;;;;;5061279;28;19916;-62
2022/05/12 13:41:28;;;;;;;;;;;26.20;64.00;;;;;;5058738;28;20261;-62
2022/05/12 13:44:01;;;;;;;;;;;25.00;64.90;;;;;;5048439;28;19917;-62
2022/05/12 13:46:27;;;;;;;;;;;24.70;66.00;;;;;;5048997;28;20020;-64
2022/05/12 13:49:00;;;;;;;;;;;23.90;67.90;;;;;;5051115;28;20315;-62
2022/05/12 13:51:37;;;;;;;;;;;23.30;69.40;;;;;;5054181;28;19956;-62
2022/05/12 13:54:08;;;;;;;;;;;22.60;69.30;;;;;;5054745;28;19978;-62
2022/05/12 13:56:35;;;;;;;;;;;22.70;70.60;;;;;;5051948;28;19956;-62
2022/05/12 13:59:12;;;;;;;;;;;23.10;70.10;;;;;;5053120;28;19986;-62
2022/05/12 14:01:38;;;;;;;;;;;23.70;69.80;;;;;;5048492;28;19928;-62
2022/05/12 14:04:16;;;;;;;;;;;23.90;68.30;;;;;;5051293;28;19916;-62
2022/05/12 14:06:43;;;;;;;;;;;23.90;68.50;;;;;;5053419;28;20008;-63
2022/05/12 14:09:14;;;;;;;;;;;23.80;68.30;;;;;;5049234;28;19916;-62
2022/05/12 14:11:39;;;;;;;;;;;22.90;66.90;;;;;;5048502;28;19997;-62
2022/05/12 14:19:36;;;;;;;;;;;23.20;66.30;;;;;;5051436;28;19936;-62
2022/05/12 14:22:07;;;;;;;;;;;23.20;66.90;;;;;;5056693;28;19916;-62
2022/05/12 14:24:34;;;;;;;;;;;24.00;67.80;;;;;;5054118;28;19923;-62
2022/05/12 14:27:00;;;;;;;;;;;24.10;66.40;;;;;;5051695;28;19912;-62
2022/05/12 14:29:27;;;;;;;;;;;24.00;65.30;;;;;;5054516;28;19924;-62
2022/05/12 14:31:52;;;;;;;;;;;24.30;65.10;;;;;;5049051;28;20274;-62
2022/05/12 14:34:19;;;;;;;;;;;23.80;64.60;;;;;;5056702;28;19971;-62
2022/05/12 14:36:46;;;;;;;;;;;23.00;64.80;;;;;;5053628;28;19917;-62
2022/05/12 14:39:11;;;;;;;;;;;22.70;65.80;;;;;;5047585;28;19969;-62
2022/05/12 14:41:37;;;;;;;;;;;22.40;66.20;;;;;;5053215;28;19917;-62
2022/05/12 14:44:03;;;;;;;;;;;22.60;67.10;;;;;;5050895;28;19917;-62
2022/05/12 14:46:33;;;;;;;;;;;22.90;66.40;;;;;;5053875;28;19916;-62
2022/05/12 14:48:58;;;;;;;;;;;22.80;67.20;;;;;;5047558;28;19999;-62
2022/05/12 14:51:24;;;;;;;;;;;21.80;67.50;;;;;;5050145;28;19927;-62
2022/05/12 14:53:50;;;;;;;;;;;22.40;67.50;;;;;;5050945;28;20005;-62